Time;durP1;ratioP1;P1;durP2;ratioP2;P2;SDS_P1;SDS_P2;PMS_P1;PMS_P2;Temp;Humidity;BMP_temperature;BMP_pressure;BME280_temperature;BME280_humidity;BME280_pressure;Samples;Min_cycle;Max_cycle;Signal;HPM_P1;HPM_P2
2021/10/17 00:00:19;;;;;;;8.55;6.18;;;;;;;9.22;57.89;100440.41;4421923;32;33896;-52
2021/10/17 00:02:48;;;;;;;10.43;6.20;;;;;;;9.14;58.24;100437.69;4422044;32;33987;-51
2021/10/17 00:05:17;;;;;;;9.85;6.32;;;;;;;9.10;58.25;100437.63;4421743;32;35337;-51
2021/10/17 00:07:45;;;;;;;10.18;6.10;;;;;;;9.10;58.20;100437.63;4422116;32;35223;-51
2021/10/17 00:10:16;;;;;;;9.48;5.80;;;;;;;9.08;58.33;100439.31;4421792;32;34589;-54
2021/10/17 00:12:44;;;;;;;9.20;5.68;;;;;;;9.12;58.23;100443.69;4422172;32;34346;-53
2021/10/17 00:15:14;;;;;;;10.40;6.10;;;;;;;9.08;58.38;100445.34;4421825;32;34789;-51
2021/10/17 00:17:42;;;;;;;10.00;6.70;;;;;;;8.93;58.70;100446.84;4421883;32;33654;-50
2021/10/17 00:20:11;;;;;;;9.98;6.00;;;;;;;9.02;58.55;100434.00;4408236;32;34500;-50
2021/10/17 00:22:40;;;;;;;9.38;6.35;;;;;;;8.93;58.68;100436.47;4421666;32;34115;-49
2021/10/17 00:25:09;;;;;;;11.38;6.25;;;;;;;8.96;58.62;100440.00;4421627;32;35000;-53
2021/10/17 00:27:37;;;;;;;13.52;7.05;;;;;;;8.99;58.61;100434.84;4421793;32;34625;-52
2021/10/17 00:30:06;;;;;;;13.07;6.60;;;;;;;8.99;58.45;100444.34;4421279;32;33658;-50
2021/10/17 00:32:36;;;;;;;10.50;6.43;;;;;;;8.90;58.60;100436.41;4421267;32;34570;-50
2021/10/17 00:35:05;;;;;;;10.27;6.20;;;;;;;8.95;58.34;100440.84;4420607;32;36139;-50
2021/10/17 00:37:34;;;;;;;9.63;6.45;;;;;;;8.71;59.10;100437.81;4421498;32;34806;-52
2021/10/17 00:40:08;;;;;;;9.25;6.85;;;;;;;8.75;58.65;100440.50;4407329;32;34526;-50
2021/10/17 00:42:37;;;;;;;9.98;6.12;;;;;;;8.91;58.06;100446.81;4421277;32;33653;-50
2021/10/17 00:45:08;;;;;;;9.13;6.32;;;;;;;8.92;57.92;100438.19;4420840;32;34739;-54
2021/10/17 00:47:35;;;;;;;11.88;7.37;;;;;;;8.88;57.84;100443.28;4421174;32;33529;-52
2021/10/17 00:50:04;;;;;;;10.13;6.72;;;;;;;8.72;58.14;100440.44;4420936;32;33697;-51
2021/10/17 00:52:31;;;;;;;12.10;6.72;;;;;;;8.63;58.63;100439.41;4420927;32;33753;-50
2021/10/17 00:54:59;;;;;;;10.30;6.25;;;;;;;8.60;58.91;100439.38;4420885;32;34783;-51
2021/10/17 00:57:26;;;;;;;10.65;7.15;;;;;;;8.63;58.87;100434.22;4420877;32;35112;-53
2021/10/17 00:59:54;;;;;;;11.05;7.75;;;;;;;8.61;58.94;100436.78;4407032;32;33811;-51
2021/10/17 01:02:21;;;;;;;12.25;7.03;;;;;;;8.56;59.25;100440.13;4394525;32;33996;-52
2021/10/17 01:04:49;;;;;;;10.65;7.00;;;;;;;8.50;59.47;100433.13;4420530;32;34894;-53
2021/10/17 01:07:17;;;;;;;11.35;7.40;;;;;;;8.50;59.36;100433.13;4406857;32;35082;-52
2021/10/17 01:09:44;;;;;;;11.15;7.00;;;;;;;8.65;58.94;100428.19;4421001;32;33819;-52
2021/10/17 01:12:13;;;;;;;12.55;8.10;;;;;;;8.66;58.64;100435.16;4420774;32;33689;-52
2021/10/17 01:14:40;;;;;;;12.23;7.10;;;;;;;8.64;58.52;100429.06;4420974;32;35488;-50
2021/10/17 01:17:08;;;;;;;11.30;7.15;;;;;;;8.51;58.52;100431.44;4407383;32;34387;-53
2021/10/17 01:19:35;;;;;;;14.70;7.80;;;;;;;8.52;58.32;100436.63;4420971;32;33764;-51
2021/10/17 01:22:04;;;;;;;14.30;7.32;;;;;;;8.50;58.40;100437.44;4420993;32;34310;-50
2021/10/17 01:24:31;;;;;;;13.98;8.18;;;;;;;8.39;58.65;100439.81;4420551;32;35677;-51
2021/10/17 01:26:59;;;;;;;15.18;8.63;;;;;;;8.26;58.94;100436.94;4420864;32;35283;-52
2021/10/17 01:29:26;;;;;;;14.02;7.68;;;;;;;8.41;58.54;100439.88;4420589;32;33678;-50
2021/10/17 01:31:55;;;;;;;17.30;9.40;;;;;;;8.44;58.23;100433.00;4406930;32;34313;-53
2021/10/17 01:34:26;;;;;;;19.95;9.48;;;;;;;8.41;58.36;100434.69;4407266;32;35832;-50
2021/10/17 01:36:54;;;;;;;16.73;8.70;;;;;;;8.22;58.84;100430.84;4420598;32;34654;-50
2021/10/17 01:39:23;;;;;;;18.08;9.27;;;;;;;8.33;58.38;100431.06;4420882;32;33545;-52
2021/10/17 01:41:50;;;;;;;15.13;8.75;;;;;;;8.10;58.94;100438.38;4420999;32;35148;-53
2021/10/17 01:44:30;;;;;;;16.00;8.60;;;;;;;8.18;58.59;100434.22;4420894;32;35474;-53
2021/10/17 01:46:59;;;;;;;16.40;8.90;;;;;;;8.12;58.30;100439.28;4406778;32;35263;-53
2021/10/17 01:49:27;;;;;;;20.58;9.95;;;;;;;8.18;58.34;100439.38;4406531;32;33737;-51
2021/10/17 01:51:55;;;;;;;16.27;9.00;;;;;;;8.10;58.71;100435.78;4420747;32;33877;-53
2021/10/17 01:54:23;;;;;;;13.85;8.82;;;;;;;7.91;59.29;100438.84;4420401;32;34867;-50
2021/10/17 01:56:51;;;;;;;18.48;9.43;;;;;;;7.83;59.71;100440.41;4407179;32;34430;-52
2021/10/17 01:59:20;;;;;;;16.60;8.38;;;;;;;7.85;59.98;100436.13;4420725;32;33454;-50
2021/10/17 02:01:48;;;;;;;16.33;8.15;;;;;;;8.17;59.04;100438.53;4420707;32;33905;-51
2021/10/17 02:04:17;;;;;;;16.95;9.15;;;;;;;8.14;58.85;100437.59;4420245;32;35735;-52
2021/10/17 02:06:45;;;;;;;16.60;8.93;;;;;;;7.97;59.40;100444.16;4420276;32;35145;-50
2021/10/17 02:09:12;;;;;;;14.18;9.13;;;;;;;8.07;58.87;100446.09;4420148;32;33603;-50
2021/10/17 02:11:40;;;;;;;16.60;9.07;;;;;;;7.92;59.50;100440.59;4419933;32;34178;-53
2021/10/17 02:14:08;;;;;;;17.95;9.32;;;;;;;7.83;59.69;100440.41;4420562;32;34732;-53
2021/10/17 02:16:36;;;;;;;15.60;9.20;;;;;;;7.97;59.16;100438.97;4420192;32;34438;-52
2021/10/17 02:19:03;;;;;;;16.60;9.18;;;;;;;8.10;58.82;100433.22;4420189;32;34631;-51
2021/10/17 02:21:31;;;;;;;17.37;9.05;;;;;;;7.84;59.43;100437.88;4420523;32;33975;-51
2021/10/17 02:23:59;;;;;;;15.82;8.98;;;;;;;8.04;58.89;100430.47;4420301;32;35296;-53
2021/10/17 02:26:27;;;;;;;15.40;8.82;;;;;;;7.89;59.07;100435.38;4420420;32;34604;-51
2021/10/17 02:28:55;;;;;;;16.17;8.40;;;;;;;7.96;58.87;100434.66;4420123;32;34749;-53
2021/10/17 02:31:23;;;;;;;14.55;8.35;;;;;;;7.86;58.88;100435.28;4420350;32;34276;-53
2021/10/17 02:33:51;;;;;;;12.32;7.47;;;;;;;7.89;58.79;100430.19;4419987;32;34864;-52
2021/10/17 02:36:19;;;;;;;14.27;8.15;;;;;;;7.82;58.75;100428.31;4420036;32;34488;-50
2021/10/17 02:38:47;;;;;;;16.65;8.13;;;;;;;7.73;59.15;100433.28;4419983;32;34851;-51
2021/10/17 02:41:15;;;;;;;12.90;7.65;;;;;;;7.68;59.30;100425.41;4406365;32;33828;-51
2021/10/17 02:43:42;;;;;;;11.75;7.82;;;;;;;7.85;58.55;100430.94;4420178;32;34656;-52
2021/10/17 02:46:10;;;;;;;13.27;7.47;;;;;;;7.76;58.56;100428.16;4419837;32;34702;-49
2021/10/17 02:48:38;;;;;;;15.45;7.80;;;;;;;7.81;58.28;100427.44;4419927;32;34052;-50
2021/10/17 02:51:06;;;;;;;14.25;8.48;;;;;;;7.65;58.65;100429.66;4419695;32;34168;-52
2021/10/17 02:53:34;;;;;;;11.73;8.10;;;;;;;7.72;58.57;100428.97;4419400;32;35694;-52
2021/10/17 02:56:01;;;;;;;16.85;7.93;;;;;;;7.73;58.29;100428.09;4405790;32;34464;-52
2021/10/17 02:58:29;;;;;;;16.52;8.43;;;;;;;7.68;58.60;100434.91;4419314;32;33576;-50
2021/10/17 03:00:57;;;;;;;13.75;8.27;;;;;;;7.62;58.62;100430.47;4419988;32;33968;-53
2021/10/17 03:03:25;;;;;;;13.45;7.55;;;;;;;7.62;58.81;100433.06;4420225;32;35357;-52
2021/10/17 03:05:53;;;;;;;12.55;8.05;;;;;;;7.51;58.90;100443.16;4419557;32;35200;-51
2021/10/17 03:08:20;;;;;;;12.48;7.80;;;;;;;7.37;59.50;100443.69;4419956;32;33725;-51
2021/10/17 03:10:49;;;;;;;17.52;8.38;;;;;;;7.51;59.44;100437.16;4420277;32;33936;-50
2021/10/17 03:13:16;;;;;;;15.18;8.60;;;;;;;7.56;59.56;100451.03;4419714;32;35136;-50
2021/10/17 03:15:45;;;;;;;14.87;9.23;;;;;;;7.42;60.00;100448.16;4419963;32;34272;-51
2021/10/17 03:18:13;;;;;;;14.35;8.80;;;;;;;7.38;60.35;100446.34;4405937;32;33205;-54
2021/10/17 03:20:40;;;;;;;14.30;8.55;;;;;;;7.59;59.75;100455.41;4419912;32;34216;-51
2021/10/17 03:23:09;;;;;;;14.35;8.10;;;;;;;7.62;59.59;100452.91;4419617;32;34851;-53
2021/10/17 03:25:37;;;;;;;11.93;8.38;;;;;;;7.46;59.87;100449.97;4419335;32;35114;-55
2021/10/17 03:28:05;;;;;;;15.20;9.45;;;;;;;7.50;59.55;100454.37;4419256;32;33995;-50
2021/10/17 03:30:32;;;;;;;15.90;9.32;;;;;;;7.59;59.28;100458.00;4419633;32;34491;-51
2021/10/17 03:33:02;;;;;;;12.95;8.20;;;;;;;7.67;59.04;100464.22;4419354;32;35121;-51
2021/10/17 03:35:30;;;;;;;15.45;8.55;;;;;;;7.55;59.19;100459.66;4419233;32;34338;-53
2021/10/17 03:37:58;;;;;;;16.40;8.95;;;;;;;7.45;59.90;100465.47;4419528;32;34423;-52
2021/10/17 03:40:25;;;;;;;15.90;9.07;;;;;;;7.38;60.11;100463.56;4419006;32;34298;-55
2021/10/17 03:42:53;;;;;;;14.60;9.07;;;;;;;7.46;59.86;100465.47;4405466;32;34750;-52
2021/10/17 03:45:21;;;;;;;14.05;8.85;;;;;;;7.47;59.77;100469.84;4419269;32;35144;-53
2021/10/17 03:47:49;;;;;;;14.27;9.05;;;;;;;7.53;59.59;100459.59;4405148;32;33490;-52
2021/10/17 03:50:17;;;;;;;15.70;8.68;;;;;;;7.41;59.98;100456.78;4418625;32;34539;-50
2021/10/17 03:52:45;;;;;;;14.90;8.70;;;;;;;7.17;60.68;100460.50;4418551;32;34821;-51
2021/10/17 03:55:13;;;;;;;15.70;8.73;;;;;;;7.51;59.62;100465.62;4405080;32;33714;-53
2021/10/17 03:57:40;;;;;;;14.45;8.90;;;;;;;7.40;59.63;100459.31;4419065;32;34855;-50
2021/10/17 04:00:09;;;;;;;15.23;8.55;;;;;;;7.41;59.32;100459.38;4392721;32;33248;-52
2021/10/17 04:02:39;;;;;;;14.43;8.90;;;;;;;7.37;59.24;100462.69;4418481;32;34976;-52
2021/10/17 04:05:08;;;;;;;13.18;8.63;;;;;;;7.38;59.28;100455.81;4418687;32;34236;-52
2021/10/17 04:07:37;;;;;;;14.07;8.88;;;;;;;7.39;59.21;100465.34;4418581;32;34085;-54
2021/10/17 04:10:05;;;;;;;13.65;8.48;;;;;;;7.31;59.19;100462.56;4419395;32;34789;-51
2021/10/17 04:12:33;;;;;;;15.43;8.70;;;;;;;7.36;58.81;100467.84;4420597;32;35723;-50
2021/10/17 04:15:00;;;;;;;13.68;8.45;;;;;;;7.35;59.00;100466.97;4420483;32;34097;-50
2021/10/17 04:17:28;;;;;;;12.88;8.20;;;;;;;7.42;58.80;100462.78;4420547;32;34028;-50
2021/10/17 04:19:56;;;;;;;16.40;9.32;;;;;;;7.14;59.69;100469.06;4420463;32;34320;-50
2021/10/17 04:22:23;;;;;;;14.05;9.15;;;;;;;7.04;59.72;100469.66;4420407;32;34649;-50
2021/10/17 04:24:51;;;;;;;16.92;9.90;;;;;;;7.08;59.81;100465.44;4420847;32;34315;-53
2021/10/17 04:27:19;;;;;;;12.75;8.95;;;;;;;7.19;59.45;100470.03;4420635;32;34101;-50
2021/10/17 04:29:46;;;;;;;19.27;10.10;;;;;;;7.05;60.00;100470.53;4420817;32;33871;-52
2021/10/17 04:32:14;;;;;;;15.70;9.55;;;;;;;7.21;59.70;100472.66;4420558;32;34959;-50
2021/10/17 04:34:41;;;;;;;18.98;10.43;;;;;;;7.25;59.52;100470.16;4420543;32;36852;-54
2021/10/17 04:37:09;;;;;;;16.05;9.40;;;;;;;6.92;60.66;100469.34;4420443;32;33657;-51
2021/10/17 04:39:37;;;;;;;16.33;9.52;;;;;;;7.26;59.59;100468.47;4406441;32;34519;-52
2021/10/17 04:42:04;;;;;;;20.30;10.73;;;;;;;7.12;60.06;100468.16;4420399;32;34767;-51
2021/10/17 04:44:33;;;;;;;26.02;15.05;;;;;;;7.17;59.87;100466.53;4406878;32;35206;-51
2021/10/17 04:47:01;;;;;;;24.17;15.38;;;;;;;6.86;60.72;100471.81;4420575;32;34522;-50
2021/10/17 04:49:29;;;;;;;25.23;15.02;;;;;;;7.07;60.08;100472.34;4420461;32;34034;-53
2021/10/17 04:51:56;;;;;;;21.15;14.23;;;;;;;6.94;60.39;100472.00;4394306;32;35094;-51
2021/10/17 04:54:24;;;;;;;19.67;12.90;;;;;;;6.99;60.32;100478.16;4420905;32;34424;-52
2021/10/17 04:56:52;;;;;;;21.35;13.30;;;;;;;6.75;60.87;100483.59;4421051;32;33697;-51
2021/10/17 04:59:21;;;;;;;23.23;12.93;;;;;;;7.00;60.30;100480.78;4421094;32;33560;-52
2021/10/17 05:01:51;;;;;;;26.37;13.82;;;;;;;7.14;59.97;100481.09;4421054;32;35843;-52
2021/10/17 05:04:19;;;;;;;29.00;16.12;;;;;;;7.27;59.59;100489.19;4420913;32;35153;-52
2021/10/17 05:06:46;;;;;;;35.33;20.15;;;;;;;7.32;59.13;100481.56;4420843;32;33505;-50
2021/10/17 05:09:14;;;;;;;32.75;19.33;;;;;;;7.11;59.90;100487.06;4420895;32;34725;-51
2021/10/17 05:11:42;;;;;;;33.50;20.77;;;;;;;7.10;60.07;100487.94;4420969;32;35391;-50
2021/10/17 05:14:09;;;;;;;27.75;18.98;;;;;;;7.23;59.55;100489.97;4420798;32;35440;-52
2021/10/17 05:16:37;;;;;;;26.80;17.67;;;;;;;7.25;59.75;100490.03;4420742;32;33632;-51
2021/10/17 05:19:04;;;;;;;21.50;14.05;;;;;;;7.27;59.70;100491.78;4420723;32;33729;-52
2021/10/17 05:21:32;;;;;;;18.87;12.65;;;;;;;7.04;60.46;100485.19;4420263;32;35200;-51
2021/10/17 05:23:59;;;;;;;16.20;10.88;;;;;;;7.23;59.95;100489.09;4420437;32;34571;-53
2021/10/17 05:26:27;;;;;;;16.92;10.75;;;;;;;7.21;60.02;100496.81;4406871;32;33310;-52
2021/10/17 05:28:55;;;;;;;17.20;9.98;;;;;;;6.96;60.81;100497.06;4420327;32;33907;-51
2021/10/17 05:31:23;;;;;;;16.33;10.27;;;;;;;7.25;59.89;100490.03;4420849;32;34745;-51
2021/10/17 05:33:51;;;;;;;15.45;8.75;;;;;;;7.14;60.16;100488.88;4420326;32;34462;-50
2021/10/17 05:36:19;;;;;;;15.90;9.52;;;;;;;7.13;60.22;100493.16;4420718;32;33996;-53
2021/10/17 05:38:46;;;;;;;17.02;9.90;;;;;;;7.23;59.94;100491.66;4420685;32;33690;-53
2021/10/17 05:41:14;;;;;;;17.48;9.52;;;;;;;7.22;60.16;100493.41;4406566;32;35643;-51
2021/10/17 05:43:42;;;;;;;13.23;9.20;;;;;;;7.41;59.70;100497.28;4420303;32;35093;-52
2021/10/17 05:46:09;;;;;;;14.35;8.88;;;;;;;7.43;59.79;100498.22;4420381;32;33561;-55
2021/10/17 05:48:37;;;;;;;16.83;9.10;;;;;;;7.32;60.33;100499.69;4420433;32;33836;-51
2021/10/17 05:51:05;;;;;;;15.10;8.93;;;;;;;7.44;60.43;100508.56;4406883;32;35681;-50
2021/10/17 05:53:32;;;;;;;12.23;8.27;;;;;;;7.67;59.92;100516.00;4406784;32;34576;-52
2021/10/17 05:56:00;;;;;;;15.88;8.90;;;;;;;7.73;60.15;100510.94;4420534;32;33440;-50
2021/10/17 05:58:28;;;;;;;16.23;9.43;;;;;;;7.94;59.76;100519.22;4420727;32;33863;-51
2021/10/17 06:00:55;;;;;;;15.25;9.80;;;;;;;7.86;60.17;100510.41;4420636;32;34644;-53
2021/10/17 06:03:24;;;;;;;14.45;9.27;;;;;;;7.98;60.16;100508.97;4420496;32;35200;-50
2021/10/17 06:06:02;;;;;;;30.55;14.87;;;;;;;8.19;59.63;100509.41;4420960;32;33016;-50
2021/10/17 06:08:31;;;;;;;177.40;74.87;;;;;;;8.41;58.89;100510.75;4420849;32;33707;-53
2021/10/17 06:10:59;;;;;;;327.58;138.35;;;;;;;8.38;59.01;100505.50;4420676;32;35751;-51
2021/10/17 06:13:27;;;;;;;143.07;71.75;;;;;;;8.77;58.13;100506.22;4420686;32;34557;-51
2021/10/17 06:15:55;;;;;;;93.28;43.83;;;;;;;8.73;58.51;100503.56;4407283;32;34471;-50
2021/10/17 06:18:23;;;;;;;54.25;28.90;;;;;;;8.87;58.30;100503.81;4421598;32;33663;-50
2021/10/17 06:20:52;;;;;;;26.48;17.17;;;;;;;9.15;57.59;100508.63;4421754;32;35151;-50
2021/10/17 06:23:20;;;;;;;20.08;11.40;;;;;;;9.19;57.73;100506.13;4422911;32;34147;-51
2021/10/17 06:25:47;;;;;;;19.40;12.00;;;;;;;9.42;57.22;100511.66;4422565;32;34502;-50
2021/10/17 06:28:15;;;;;;;22.37;11.00;;;;;;;9.47;57.01;100512.59;4422371;32;34766;-50
2021/10/17 06:30:44;;;;;;;18.60;12.15;;;;;;;9.63;56.80;100511.97;4422453;32;35739;-51
2021/10/17 06:33:11;;;;;;;15.93;10.80;;;;;;;9.77;56.64;100520.00;4421686;32;34609;-51
2021/10/17 06:35:39;;;;;;;21.30;11.05;;;;;;;9.79;56.87;100518.28;4422792;32;33704;-51
2021/10/17 06:38:06;;;;;;;21.35;11.57;;;;;;;9.82;56.80;100519.19;4422723;32;33700;-51
2021/10/17 06:40:35;;;;;;;17.33;11.05;;;;;;;9.95;56.42;100526.31;4422503;32;35805;-52
2021/10/17 06:43:03;;;;;;;22.02;12.27;;;;;;;10.24;55.79;100525.84;4422573;32;35072;-54
2021/10/17 06:45:33;;;;;;;22.73;12.73;;;;;;;10.27;55.99;100531.94;4422384;32;33874;-50
2021/10/17 06:48:00;;;;;;;24.35;14.73;;;;;;;10.29;63.44;100527.66;4422267;32;34675;-49
2021/10/17 06:50:28;;;;;;;28.85;19.33;;;;;;;10.60;68.34;100534.09;4422449;32;34914;-50
2021/10/17 06:52:57;;;;;;;23.48;16.90;;;;;;;10.94;61.87;100533.56;4422580;32;35128;-50
2021/10/17 06:55:24;;;;;;;25.00;16.90;;;;;;;11.01;56.52;100530.19;4422379;32;33615;-50
2021/10/17 06:57:52;;;;;;;22.92;14.13;;;;;;;11.21;55.30;100519.94;4422378;32;34023;-50
2021/10/17 07:00:20;;;;;;;21.00;13.23;;;;;;;11.24;55.12;100523.47;4421501;32;34882;-50
2021/10/17 07:02:48;;;;;;;17.37;12.48;;;;;;;11.18;59.34;100532.94;4422270;32;34357;-50
2021/10/17 07:05:16;;;;;;;20.52;12.45;;;;;;;11.48;63.75;100539.28;4422442;32;34214;-51
2021/10/17 07:07:44;;;;;;;18.65;11.55;;;;;;;11.89;56.43;100536.09;4422203;32;34584;-50
2021/10/17 07:10:11;;;;;;;15.82;11.07;;;;;;;12.03;54.24;100529.25;4422353;32;34684;-51
2021/10/17 07:12:41;;;;;;;14.05;10.88;;;;;;;12.05;53.21;100537.97;4422213;32;34242;-53
2021/10/17 07:15:08;;;;;;;19.05;11.10;;;;;;;12.10;53.38;100533.62;4422054;32;34234;-50
2021/10/17 07:17:38;;;;;;;17.62;10.40;;;;;;;11.92;53.35;100536.13;4421853;32;33800;-50
2021/10/17 07:20:20;;;;;;;15.25;10.63;;;;;;;12.36;52.17;100539.00;4399055;32;34656;-51
2021/10/17 07:22:48;;;;;;;16.27;10.43;;;;;;;12.10;52.09;100542.31;4421940;32;35121;-53
2021/10/17 07:25:16;;;;;;;18.15;11.05;;;;;;;12.27;53.36;100534.59;4421750;32;33679;-52
2021/10/17 07:27:44;;;;;;;16.05;11.02;;;;;;;12.61;53.01;100535.59;4422023;32;33791;-51
2021/10/17 07:30:11;;;;;;;19.37;10.88;;;;;;;12.57;52.71;100529.50;4422100;32;34775;-51
2021/10/17 07:32:39;;;;;;;18.45;11.82;;;;;;;12.74;52.11;100530.41;4421805;32;35162;-49
2021/10/17 07:35:07;;;;;;;21.02;11.93;;;;;;;13.10;50.85;100537.47;4421976;32;33665;-53
2021/10/17 07:37:36;;;;;;;20.83;11.95;;;;;;;12.98;50.90;100537.41;4422165;32;33934;-50
2021/10/17 07:40:05;;;;;;;21.80;12.90;;;;;;;13.11;50.30;100533.13;4421664;32;34719;-49
2021/10/17 07:42:36;;;;;;;21.98;13.18;;;;;;;13.21;49.49;100534.88;4421929;32;34867;-50
2021/10/17 07:45:05;;;;;;;24.58;13.93;;;;;;;13.15;49.59;100540.09;4423466;32;34377;-52
2021/10/17 07:47:34;;;;;;;22.67;13.48;;;;;;;13.18;49.60;100535.75;4423358;32;33930;-51
2021/10/17 07:50:07;;;;;;;24.02;14.43;;;;;;;13.13;50.69;100539.22;4423234;32;35641;-53
2021/10/17 07:52:36;;;;;;;20.65;14.07;;;;;;;13.44;49.96;100539.25;4423869;32;34428;-52
2021/10/17 07:55:08;;;;;;;23.17;13.80;;;;;;;13.61;48.27;100541.84;4410643;32;34501;-50
2021/10/17 07:57:47;;;;;;;22.50;13.95;;;;;;;13.80;47.73;100530.50;4423890;32;33824;-51
2021/10/17 08:00:17;;;;;;;27.90;16.52;;;;;;;13.68;48.19;100538.34;4409937;32;35696;-54
2021/10/17 08:02:51;;;;;;;24.50;15.15;;;;;;;13.75;47.91;100532.25;4423687;32;34354;-53
2021/10/17 08:05:20;;;;;;;21.55;12.18;;;;;;;13.97;47.51;100536.56;4423433;32;34324;-50
2021/10/17 08:07:49;;;;;;;18.02;9.85;;;;;;;14.23;46.66;100539.97;4423540;32;34606;-53
2021/10/17 08:10:20;;;;;;;13.90;9.38;;;;;;;14.14;46.16;100532.13;4423826;32;34812;-50
2021/10/17 08:12:49;;;;;;;24.83;12.23;;;;;;;14.31;45.92;100536.50;4423413;32;35094;-54
2021/10/17 08:15:18;;;;;;;22.48;12.75;;;;;;;14.33;45.27;100540.84;4423710;32;33483;-50
2021/10/17 08:17:46;;;;;;;21.20;12.10;;;;;;;14.45;45.76;100537.31;4423660;32;33956;-55
2021/10/17 08:20:14;;;;;;;16.30;8.32;;;;;;;14.67;45.58;100533.69;4423383;32;35781;-51
2021/10/17 08:22:41;;;;;;;16.02;9.70;;;;;;;14.72;43.73;100537.16;4423684;32;34864;-50
2021/10/17 08:25:09;;;;;;;12.15;8.13;;;;;;;14.75;44.46;100534.53;4423615;32;33985;-51
2021/10/17 08:27:41;;;;;;;11.52;6.87;;;;;;;14.87;42.53;100530.12;4423036;32;33766;-57
2021/10/17 08:30:12;;;;;;;17.50;8.30;;;;;;;14.72;43.26;100545.03;4409795;32;35576;-51
2021/10/17 08:32:42;;;;;;;14.55;7.60;;;;;;;14.77;42.17;100546.75;4418034;32;35126;-51
2021/10/17 08:35:12;;;;;;;15.25;7.93;;;;;;;14.86;42.23;100537.97;4403125;32;34126;-50
2021/10/17 08:37:42;;;;;;;14.18;7.85;;;;;;;15.07;42.14;100536.97;4407433;32;34243;-50
2021/10/17 08:40:09;;;;;;;12.77;7.30;;;;;;;15.16;41.75;100531.66;4407202;32;34812;-50
2021/10/17 08:42:38;;;;;;;14.68;8.80;;;;;;;15.20;42.12;100534.25;4406960;32;34660;-50
2021/10/17 08:45:07;;;;;;;12.77;8.48;;;;;;;15.23;41.54;100530.75;4407644;32;34200;-52
2021/10/17 08:47:34;;;;;;;14.98;7.97;;;;;;;15.28;41.20;100534.19;4409594;32;34779;-47
2021/10/17 08:50:04;;;;;;;13.45;8.50;;;;;;;15.19;41.17;100537.75;4422556;32;36251;-53
2021/10/17 08:52:31;;;;;;;15.85;7.90;;;;;;;15.13;41.37;100526.44;4407187;32;35126;-51
2021/10/17 08:55:01;;;;;;;14.15;7.32;;;;;;;15.21;52.81;100530.75;4422197;32;36229;-51
2021/10/17 08:57:28;;;;;;;10.00;6.75;;;;;;;15.73;41.66;100532.97;4423472;32;34635;-50
2021/10/17 08:59:57;;;;;;;13.77;7.55;;;;;;;15.50;40.71;100535.78;4423162;32;35165;-52
2021/10/17 09:02:25;;;;;;;14.85;7.90;;;;;;;15.45;41.21;100530.56;4423630;32;34931;-52
2021/10/17 09:05:06;;;;;;;17.25;8.93;;;;;;;15.47;40.74;100530.59;4409185;32;33461;-49
2021/10/17 09:07:37;;;;;;;13.38;8.38;;;;;;;15.28;56.68;100535.06;4423240;32;33779;-51
2021/10/17 09:10:07;;;;;;;13.82;8.70;;;;;;;15.59;44.67;100541.81;4422995;32;34830;-48
2021/10/17 09:12:37;;;;;;;12.55;8.15;;;;;;;15.81;41.21;100536.41;4422948;32;33781;-50
2021/10/17 09:15:25;;;;;;;14.63;8.52;;;;;;;15.69;40.27;100534.72;4422923;32;34459;-52
2021/10/17 09:18:08;;;;;;;17.27;9.45;;;;;;;15.62;41.44;100533.06;4423076;32;33865;-49
2021/10/17 09:20:47;;;;;;;;;;;;;;;15.64;41.31;100531.31;4423278;32;35715;-49
2021/10/17 09:23:16;;;;;;;15.75;9.05;;;;;;;15.60;41.21;100534.81;4423221;32;35398;-50
2021/10/17 09:25:44;;;;;;;24.65;10.23;;;;;;;15.61;41.00;100533.94;4423084;32;34362;-49
2021/10/17 09:28:16;;;;;;;15.90;9.35;;;;;;;15.67;40.77;100535.63;4409557;32;34255;-49
2021/10/17 09:31:05;;;;;;;17.30;9.45;;;;;;;15.77;41.51;100535.53;4423043;32;35411;-49
2021/10/17 09:33:47;;;;;;;14.95;7.85;;;;;;;15.87;40.73;100536.31;4423313;32;34378;-49
2021/10/17 09:36:20;;;;;;;14.27;7.87;;;;;;;15.87;40.12;100538.94;4423211;32;34239;-50
2021/10/17 09:39:10;;;;;;;14.20;8.95;;;;;;;16.00;40.41;100537.91;4423181;32;32186;-49
2021/10/17 09:41:51;;;;;;;15.25;9.45;;;;;;;16.01;40.55;100530.06;4423268;32;34754;-48
2021/10/17 09:44:19;;;;;;;17.20;9.25;;;;;;;16.13;40.46;100526.41;4423131;32;34783;-50
2021/10/17 09:46:58;;;;;;;16.08;9.27;;;;;;;16.11;40.83;100528.19;4409103;32;33677;-49
2021/10/17 09:49:26;;;;;;;16.27;9.05;;;;;;;16.05;40.59;100531.75;4422752;32;33998;-52
2021/10/17 09:52:17;;;;;;;12.07;8.52;;;;;;;16.18;40.54;100524.63;4422684;32;35927;-50
2021/10/17 09:55:06;;;;;;;13.73;8.25;;;;;;;16.36;40.13;100523.50;4409291;32;34348;-49
2021/10/17 09:57:37;;;;;;;15.73;9.13;;;;;;;16.30;40.43;100529.72;4422793;32;33605;-50
2021/10/17 10:00:05;;;;;;;15.75;9.05;;;;;;;16.34;39.25;100522.66;4422758;32;33592;-51
2021/10/17 10:02:38;;;;;;;13.90;9.85;;;;;;;16.51;39.01;100525.97;4422837;32;34768;-48
2021/10/17 10:05:06;;;;;;;13.75;8.52;;;;;;;16.31;39.98;100520.09;4422989;32;34447;-49
2021/10/17 10:07:34;;;;;;;15.95;9.35;;;;;;;16.32;39.84;100517.44;4408909;32;33563;-49
2021/10/17 10:10:02;;;;;;;14.57;9.43;;;;;;;16.09;40.40;100514.22;4408967;32;33963;-49
2021/10/17 10:12:31;;;;;;;16.77;9.75;;;;;;;16.09;40.11;100519.47;4408962;32;35731;-49
2021/10/17 10:14:59;;;;;;;13.82;8.93;;;;;;;16.23;40.36;100513.19;4422728;32;34288;-49
2021/10/17 10:17:29;;;;;;;18.15;10.05;;;;;;;16.40;40.23;100507.72;4409207;32;33668;-48
2021/10/17 10:19:59;;;;;;;16.15;9.57;;;;;;;16.52;40.23;100512.84;4408956;32;34021;-49
2021/10/17 10:22:31;;;;;;;17.37;9.52;;;;;;;16.74;39.10;100502.91;4422975;32;35000;-49
2021/10/17 10:25:00;;;;;;;19.30;9.38;;;;;;;16.71;39.10;100514.31;4422680;32;34451;-51
2021/10/17 10:27:28;;;;;;;16.27;9.35;;;;;;;17.00;39.16;100513.91;4396377;32;33625;-50
2021/10/17 10:30:18;;;;;;;16.00;9.65;;;;;;;17.03;38.31;100507.75;4408777;32;33879;-53
2021/10/17 10:33:14;;;;;;;15.35;9.57;;;;;;;16.59;38.68;100498.72;4422554;32;34866;-48
2021/10/17 10:36:12;;;;;;;15.68;9.13;;;;;;;16.25;39.59;100497.41;4422848;32;34410;-49
2021/10/17 10:38:52;;;;;;;13.68;8.43;;;;;;;16.53;40.04;100490.94;4422611;32;33644;-49
2021/10/17 10:41:28;;;;;;;17.62;8.75;;;;;;;16.82;38.31;100487.91;4422571;32;34307;-49
2021/10/17 10:44:22;;;;;;;17.30;8.65;;;;;;;16.85;38.21;100482.62;4422706;32;36263;-49
2021/10/17 10:46:53;;;;;;;13.20;8.07;;;;;;;16.81;38.40;100479.16;4422545;32;34833;-49
2021/10/17 10:49:44;;;;;;;14.93;8.63;;;;;;;16.96;38.88;100480.69;4422340;32;33463;-50
2021/10/17 10:52:24;;;;;;;15.88;8.52;;;;;;;17.02;38.84;100474.50;4422422;32;33752;-48
2021/10/17 10:54:57;;;;;;;13.55;8.27;;;;;;;17.12;37.66;100474.28;4422660;32;34740;-48
2021/10/17 10:57:29;;;;;;;13.90;8.57;;;;;;;17.01;38.31;100472.75;4408451;32;34287;-49
2021/10/17 11:00:06;;;;;;;15.13;8.52;;;;;;;17.12;38.30;100471.66;4408880;32;34418;-49
2021/10/17 11:02:38;;;;;;;10.98;7.80;;;;;;;17.07;38.27;100475.28;4422313;32;34687;-49
2021/10/17 11:05:16;;;;;;;12.73;7.97;;;;;;;17.18;37.83;100468.09;4422367;32;34766;-49
2021/10/17 11:07:45;;;;;;;14.57;8.02;;;;;;;17.37;37.34;100469.50;4408450;32;35206;-49
2021/10/17 11:10:22;;;;;;;15.00;7.87;;;;;;;16.96;38.82;100472.81;4422294;32;34496;-48
2021/10/17 11:12:52;;;;;;;11.52;6.90;;;;;;;16.97;38.42;100465.81;4422347;32;34760;-49
2021/10/17 11:15:21;;;;;;;11.77;6.93;;;;;;;16.91;38.47;100467.63;4408238;32;34478;-49
2021/10/17 11:17:51;;;;;;;14.05;7.55;;;;;;;17.13;38.63;100470.78;4408372;32;35015;-49
2021/10/17 11:20:31;;;;;;;10.20;6.85;;;;;;;17.33;37.96;100465.22;4426787;32;34053;-49
2021/10/17 11:23:00;;;;;;;10.73;6.93;;;;;;;17.45;37.85;100454.44;4425697;32;34264;-50
2021/10/17 11:25:29;;;;;;;18.12;7.40;;;;;;;17.24;52.23;100450.44;4426429;32;35486;-50
2021/10/17 11:27:59;;;;;;;10.82;7.07;;;;;;;17.35;44.33;100452.91;4425356;32;35124;-49
2021/10/17 11:30:30;;;;;;;16.33;7.18;;;;;;;17.41;42.57;100442.25;4426739;32;33912;-48